sensor_id;sensor_type;location;lat;lon;timestamp;P1;durP1;ratioP1;P2;durP2;ratioP2
19897;SDS011;10111;50.814;4.572;2023-06-14T00:01:24;7.67;;;5.70;;
19897;SDS011;10111;50.814;4.572;2023-06-14T00:03:50;8.90;;;6.57;;
19897;SDS011;10111;50.814;4.572;2023-06-14T00:06:15;14.63;;;6.47;;
19897;SDS011;10111;50.814;4.572;2023-06-14T00:08:42;7.37;;;5.20;;
19897;SDS011;10111;50.814;4.572;2023-06-14T00:11:07;14.40;;;5.67;;
19897;SDS011;10111;50.814;4.572;2023-06-14T00:13:33;9.87;;;5.97;;
19897;SDS011;10111;50.814;4.572;2023-06-14T00:15:59;6.27;;;5.67;;
19897;SDS011;10111;50.814;4.572;2023-06-14T00:18:25;8.50;;;5.50;;
19897;SDS011;10111;50.814;4.572;2023-06-14T00:20:51;6.47;;;5.73;;
19897;SDS011;10111;50.814;4.572;2023-06-14T00:23:17;7.23;;;6.37;;
19897;SDS011;10111;50.814;4.572;2023-06-14T00:25:43;9.50;;;6.40;;
19897;SDS011;10111;50.814;4.572;2023-06-14T00:28:09;7.67;;;6.17;;
19897;SDS011;10111;50.814;4.572;2023-06-14T00:30:35;6.00;;;5.43;;
19897;SDS011;10111;50.814;4.572;2023-06-14T00:33:00;8.07;;;5.90;;
19897;SDS011;10111;50.814;4.572;2023-06-14T00:35:26;6.47;;;5.77;;
19897;SDS011;10111;50.814;4.572;2023-06-14T00:37:52;6.60;;;5.90;;
19897;SDS011;10111;50.814;4.572;2023-06-14T00:40:19;11.43;;;6.20;;
19897;SDS011;10111;50.814;4.572;2023-06-14T00:42:46;6.97;;;5.73;;
19897;SDS011;10111;50.814;4.572;2023-06-14T00:45:11;13.00;;;6.33;;
19897;SDS011;10111;50.814;4.572;2023-06-14T00:47:37;9.70;;;5.93;;
19897;SDS011;10111;50.814;4.572;2023-06-14T00:50:06;9.27;;;6.17;;
19897;SDS011;10111;50.814;4.572;2023-06-14T00:52:32;10.17;;;5.77;;
19897;SDS011;10111;50.814;4.572;2023-06-14T00:54:59;7.10;;;6.40;;
19897;SDS011;10111;50.814;4.572;2023-06-14T00:57:25;7.70;;;6.53;;
19897;SDS011;10111;50.814;4.572;2023-06-14T00:59:52;9.33;;;6.57;;
19897;SDS011;10111;50.814;4.572;2023-06-14T01:02:19;8.37;;;5.70;;
19897;SDS011;10111;50.814;4.572;2023-06-14T01:04:45;8.30;;;6.03;;
19897;SDS011;10111;50.814;4.572;2023-06-14T01:15:30;6.37;;;5.77;;
19897;SDS011;10111;50.814;4.572;2023-06-14T01:17:57;6.90;;;6.20;;
19897;SDS011;10111;50.814;4.572;2023-06-14T01:20:28;6.53;;;5.40;;
19897;SDS011;10111;50.814;4.572;2023-06-14T01:22:56;8.47;;;7.47;;
19897;SDS011;10111;50.814;4.572;2023-06-14T01:25:22;9.00;;;6.67;;
19897;SDS011;10111;50.814;4.572;2023-06-14T01:27:49;11.00;;;6.57;;
19897;SDS011;10111;50.814;4.572;2023-06-14T01:30:17;9.17;;;6.50;;
19897;SDS011;10111;50.814;4.572;2023-06-14T01:32:45;8.57;;;6.93;;
19897;SDS011;10111;50.814;4.572;2023-06-14T01:35:12;9.77;;;6.20;;
19897;SDS011;10111;50.814;4.572;2023-06-14T01:37:37;7.10;;;6.40;;
19897;SDS011;10111;50.814;4.572;2023-06-14T01:40:07;7.23;;;6.30;;
19897;SDS011;10111;50.814;4.572;2023-06-14T01:42:36;9.83;;;6.97;;
19897;SDS011;10111;50.814;4.572;2023-06-14T01:45:04;8.40;;;6.50;;
19897;SDS011;10111;50.814;4.572;2023-06-14T01:47:30;7.63;;;6.83;;
19897;SDS011;10111;50.814;4.572;2023-06-14T01:49:57;12.70;;;7.43;;
19897;SDS011;10111;50.814;4.572;2023-06-14T01:52:22;7.67;;;6.50;;
19897;SDS011;10111;50.814;4.572;2023-06-14T01:54:49;6.70;;;6.07;;
19897;SDS011;10111;50.814;4.572;2023-06-14T01:57:15;6.43;;;5.83;;
19897;SDS011;10111;50.814;4.572;2023-06-14T01:59:41;7.83;;;6.47;;
19897;SDS011;10111;50.814;4.572;2023-06-14T02:02:07;7.73;;;6.33;;
19897;SDS011;10111;50.814;4.572;2023-06-14T02:04:33;7.67;;;6.90;;
19897;SDS011;10111;50.814;4.572;2023-06-14T02:06:59;9.57;;;8.57;;
19897;SDS011;10111;50.814;4.572;2023-06-14T02:09:25;7.20;;;6.50;;
19897;SDS011;10111;50.814;4.572;2023-06-14T02:11:50;7.90;;;7.10;;
19897;SDS011;10111;50.814;4.572;2023-06-14T02:14:16;7.60;;;6.90;;
19897;SDS011;10111;50.814;4.572;2023-06-14T02:16:42;6.93;;;6.23;;
19897;SDS011;10111;50.814;4.572;2023-06-14T02:19:17;7.60;;;6.40;;
19897;SDS011;10111;50.814;4.572;2023-06-14T02:21:43;7.07;;;6.37;;
19897;SDS011;10111;50.814;4.572;2023-06-14T02:24:09;8.63;;;7.07;;
19897;SDS011;10111;50.814;4.572;2023-06-14T02:26:35;8.50;;;7.57;;
19897;SDS011;10111;50.814;4.572;2023-06-14T02:29:03;12.00;;;7.93;;
19897;SDS011;10111;50.814;4.572;2023-06-14T02:31:30;8.13;;;6.77;;
19897;SDS011;10111;50.814;4.572;2023-06-14T02:33:56;7.70;;;6.90;;
19897;SDS011;10111;50.814;4.572;2023-06-14T02:36:22;8.10;;;7.30;;
19897;SDS011;10111;50.814;4.572;2023-06-14T02:38:48;9.57;;;6.93;;
19897;SDS011;10111;50.814;4.572;2023-06-14T02:41:14;15.37;;;7.67;;
19897;SDS011;10111;50.814;4.572;2023-06-14T02:43:39;7.87;;;7.03;;
19897;SDS011;10111;50.814;4.572;2023-06-14T02:46:05;11.27;;;7.43;;
19897;SDS011;10111;50.814;4.572;2023-06-14T02:48:31;10.67;;;7.20;;
19897;SDS011;10111;50.814;4.572;2023-06-14T02:50:56;9.73;;;7.30;;
19897;SDS011;10111;50.814;4.572;2023-06-14T02:53:22;9.30;;;7.07;;
19897;SDS011;10111;50.814;4.572;2023-06-14T02:55:48;9.57;;;7.67;;
19897;SDS011;10111;50.814;4.572;2023-06-14T02:58:13;10.83;;;7.17;;
19897;SDS011;10111;50.814;4.572;2023-06-14T03:00:39;13.20;;;7.53;;
19897;SDS011;10111;50.814;4.572;2023-06-14T03:03:06;21.43;;;8.33;;
19897;SDS011;10111;50.814;4.572;2023-06-14T03:05:43;19.47;;;8.13;;
19897;SDS011;10111;50.814;4.572;2023-06-14T03:08:14;12.90;;;7.60;;
19897;SDS011;10111;50.814;4.572;2023-06-14T03:10:47;11.40;;;7.37;;
19897;SDS011;10111;50.814;4.572;2023-06-14T03:13:14;9.17;;;7.50;;
19897;SDS011;10111;50.814;4.572;2023-06-14T03:15:46;10.10;;;6.93;;
19897;SDS011;10111;50.814;4.572;2023-06-14T03:18:12;8.37;;;6.77;;
19897;SDS011;10111;50.814;4.572;2023-06-14T03:20:40;10.00;;;7.00;;
19897;SDS011;10111;50.814;4.572;2023-06-14T03:23:06;11.13;;;6.77;;
19897;SDS011;10111;50.814;4.572;2023-06-14T03:25:32;12.47;;;7.20;;
19897;SDS011;10111;50.814;4.572;2023-06-14T03:28:03;9.17;;;7.77;;
19897;SDS011;10111;50.814;4.572;2023-06-14T03:30:30;7.30;;;6.60;;
19897;SDS011;10111;50.814;4.572;2023-06-14T03:32:56;9.87;;;7.57;;
19897;SDS011;10111;50.814;4.572;2023-06-14T03:35:23;11.40;;;7.87;;
19897;SDS011;10111;50.814;4.572;2023-06-14T03:37:49;9.07;;;7.53;;
19897;SDS011;10111;50.814;4.572;2023-06-14T03:40:16;10.10;;;8.30;;
19897;SDS011;10111;50.814;4.572;2023-06-14T03:42:48;9.30;;;8.17;;
19897;SDS011;10111;50.814;4.572;2023-06-14T03:45:14;11.03;;;8.20;;
19897;SDS011;10111;50.814;4.572;2023-06-14T03:47:40;8.57;;;7.63;;
19897;SDS011;10111;50.814;4.572;2023-06-14T03:50:05;9.33;;;7.27;;
19897;SDS011;10111;50.814;4.572;2023-06-14T03:52:31;10.30;;;7.50;;
19897;SDS011;10111;50.814;4.572;2023-06-14T03:54:58;9.13;;;7.23;;
19897;SDS011;10111;50.814;4.572;2023-06-14T03:57:25;14.70;;;9.57;;
19897;SDS011;10111;50.814;4.572;2023-06-14T03:59:51;10.87;;;8.23;;
19897;SDS011;10111;50.814;4.572;2023-06-14T04:02:16;12.17;;;8.17;;
19897;SDS011;10111;50.814;4.572;2023-06-14T04:04:43;13.60;;;8.23;;
19897;SDS011;10111;50.814;4.572;2023-06-14T04:07:13;10.40;;;7.53;;
19897;SDS011;10111;50.814;4.572;2023-06-14T04:09:40;9.07;;;7.97;;
19897;SDS011;10111;50.814;4.572;2023-06-14T04:12:06;11.27;;;8.30;;
19897;SDS011;10111;50.814;4.572;2023-06-14T04:14:33;9.57;;;8.17;;
19897;SDS011;10111;50.814;4.572;2023-06-14T04:17:00;25.30;;;8.93;;
19897;SDS011;10111;50.814;4.572;2023-06-14T04:19:26;10.70;;;7.83;;
19897;SDS011;10111;50.814;4.572;2023-06-14T04:21:51;25.30;;;10.27;;
19897;SDS011;10111;50.814;4.572;2023-06-14T04:24:17;11.07;;;7.80;;
19897;SDS011;10111;50.814;4.572;2023-06-14T04:26:43;9.73;;;7.87;;
19897;SDS011;10111;50.814;4.572;2023-06-14T04:29:13;9.13;;;8.20;;
19897;SDS011;10111;50.814;4.572;2023-06-14T04:31:41;10.83;;;8.50;;
19897;SDS011;10111;50.814;4.572;2023-06-14T04:34:07;10.17;;;8.27;;
19897;SDS011;10111;50.814;4.572;2023-06-14T04:36:33;11.17;;;8.07;;
19897;SDS011;10111;50.814;4.572;2023-06-14T04:39:01;11.67;;;8.90;;
19897;SDS011;10111;50.814;4.572;2023-06-14T04:41:31;8.20;;;7.33;;
19897;SDS011;10111;50.814;4.572;2023-06-14T04:44:00;10.17;;;7.93;;
19897;SDS011;10111;50.814;4.572;2023-06-14T04:46:28;12.80;;;8.50;;
19897;SDS011;10111;50.814;4.572;2023-06-14T04:48:55;11.20;;;8.17;;
19897;SDS011;10111;50.814;4.572;2023-06-14T04:51:21;20.77;;;10.60;;
19897;SDS011;10111;50.814;4.572;2023-06-14T04:53:54;78.77;;;19.47;;
19897;SDS011;10111;50.814;4.572;2023-06-14T04:56:26;28.50;;;11.20;;
19897;SDS011;10111;50.814;4.572;2023-06-14T04:58:52;20.53;;;9.87;;
19897;SDS011;10111;50.814;4.572;2023-06-14T05:01:19;13.63;;;9.50;;
19897;SDS011;10111;50.814;4.572;2023-06-14T05:03:46;12.30;;;9.27;;
19897;SDS011;10111;50.814;4.572;2023-06-14T05:06:14;14.03;;;9.03;;
19897;SDS011;10111;50.814;4.572;2023-06-14T05:08:40;11.00;;;9.77;;
19897;SDS011;10111;50.814;4.572;2023-06-14T05:11:06;11.40;;;9.43;;
19897;SDS011;10111;50.814;4.572;2023-06-14T05:13:32;15.37;;;9.60;;
19897;SDS011;10111;50.814;4.572;2023-06-14T05:15:59;11.47;;;8.67;;
19897;SDS011;10111;50.814;4.572;2023-06-14T05:18:25;11.27;;;8.73;;
19897;SDS011;10111;50.814;4.572;2023-06-14T05:20:51;13.37;;;9.47;;
19897;SDS011;10111;50.814;4.572;2023-06-14T05:23:17;16.87;;;10.27;;
19897;SDS011;10111;50.814;4.572;2023-06-14T05:25:43;12.93;;;9.20;;
19897;SDS011;10111;50.814;4.572;2023-06-14T05:28:09;12.00;;;9.17;;
19897;SDS011;10111;50.814;4.572;2023-06-14T05:30:40;11.50;;;9.00;;
19897;SDS011;10111;50.814;4.572;2023-06-14T05:33:06;9.47;;;8.40;;
19897;SDS011;10111;50.814;4.572;2023-06-14T05:35:31;9.97;;;8.80;;
19897;SDS011;10111;50.814;4.572;2023-06-14T05:37:57;12.07;;;9.50;;
19897;SDS011;10111;50.814;4.572;2023-06-14T05:40:23;10.57;;;8.63;;
19897;SDS011;10111;50.814;4.572;2023-06-14T05:42:49;10.40;;;8.73;;
19897;SDS011;10111;50.814;4.572;2023-06-14T05:45:14;9.80;;;7.77;;
19897;SDS011;10111;50.814;4.572;2023-06-14T05:47:41;12.07;;;9.23;;
19897;SDS011;10111;50.814;4.572;2023-06-14T05:50:07;10.57;;;9.43;;
19897;SDS011;10111;50.814;4.572;2023-06-14T05:52:33;11.20;;;7.90;;
19897;SDS011;10111;50.814;4.572;2023-06-14T05:55:00;12.07;;;8.73;;
19897;SDS011;10111;50.814;4.572;2023-06-14T05:57:26;10.27;;;8.97;;
19897;SDS011;10111;50.814;4.572;2023-06-14T05:59:52;10.30;;;8.27;;
19897;SDS011;10111;50.814;4.572;2023-06-14T06:02:17;12.57;;;8.67;;
19897;SDS011;10111;50.814;4.572;2023-06-14T06:04:43;10.60;;;7.90;;
19897;SDS011;10111;50.814;4.572;2023-06-14T06:07:08;14.53;;;8.30;;
19897;SDS011;10111;50.814;4.572;2023-06-14T06:09:34;8.73;;;7.83;;
19897;SDS011;10111;50.814;4.572;2023-06-14T06:12:00;11.97;;;8.77;;
19897;SDS011;10111;50.814;4.572;2023-06-14T06:14:25;8.80;;;7.87;;
19897;SDS011;10111;50.814;4.572;2023-06-14T06:16:51;9.40;;;8.40;;
19897;SDS011;10111;50.814;4.572;2023-06-14T06:19:17;11.20;;;8.10;;
19897;SDS011;10111;50.814;4.572;2023-06-14T06:21:43;10.20;;;8.17;;
19897;SDS011;10111;50.814;4.572;2023-06-14T06:24:09;9.47;;;8.53;;
19897;SDS011;10111;50.814;4.572;2023-06-14T06:26:34;9.03;;;8.13;;
19897;SDS011;10111;50.814;4.572;2023-06-14T06:29:00;14.17;;;7.90;;
19897;SDS011;10111;50.814;4.572;2023-06-14T06:31:26;9.93;;;8.93;;
19897;SDS011;10111;50.814;4.572;2023-06-14T06:33:52;8.17;;;7.37;;
19897;SDS011;10111;50.814;4.572;2023-06-14T06:36:19;10.93;;;8.70;;
19897;SDS011;10111;50.814;4.572;2023-06-14T06:38:46;11.00;;;7.87;;
19897;SDS011;10111;50.814;4.572;2023-06-14T06:41:12;10.70;;;7.67;;
19897;SDS011;10111;50.814;4.572;2023-06-14T06:43:38;9.60;;;7.33;;
19897;SDS011;10111;50.814;4.572;2023-06-14T06:46:04;12.20;;;8.03;;
19897;SDS011;10111;50.814;4.572;2023-06-14T06:48:30;11.50;;;7.87;;
19897;SDS011;10111;50.814;4.572;2023-06-14T06:50:55;8.97;;;7.23;;
19897;SDS011;10111;50.814;4.572;2023-06-14T06:53:21;8.30;;;6.73;;
19897;SDS011;10111;50.814;4.572;2023-06-14T06:55:48;8.57;;;7.27;;
19897;SDS011;10111;50.814;4.572;2023-06-14T06:58:14;8.03;;;7.20;;
19897;SDS011;10111;50.814;4.572;2023-06-14T07:00:40;9.47;;;6.37;;
19897;SDS011;10111;50.814;4.572;2023-06-14T07:03:06;9.37;;;7.07;;
19897;SDS011;10111;50.814;4.572;2023-06-14T07:05:31;9.50;;;7.63;;
19897;SDS011;10111;50.814;4.572;2023-06-14T07:07:57;10.87;;;6.47;;
19897;SDS011;10111;50.814;4.572;2023-06-14T07:10:23;8.60;;;7.00;;
19897;SDS011;10111;50.814;4.572;2023-06-14T07:12:49;9.57;;;6.70;;
19897;SDS011;10111;50.814;4.572;2023-06-14T07:15:15;7.30;;;6.60;;
19897;SDS011;10111;50.814;4.572;2023-06-14T07:17:41;9.80;;;6.53;;
19897;SDS011;10111;50.814;4.572;2023-06-14T07:20:07;9.00;;;6.57;;
19897;SDS011;10111;50.814;4.572;2023-06-14T07:22:38;7.10;;;6.40;;
19897;SDS011;10111;50.814;4.572;2023-06-14T07:25:05;8.93;;;6.63;;
19897;SDS011;10111;50.814;4.572;2023-06-14T07:27:33;8.77;;;6.43;;
19897;SDS011;10111;50.814;4.572;2023-06-14T07:29:59;7.40;;;6.50;;
19897;SDS011;10111;50.814;4.572;2023-06-14T07:32:25;10.77;;;6.77;;
19897;SDS011;10111;50.814;4.572;2023-06-14T07:34:50;9.33;;;6.50;;
19897;SDS011;10111;50.814;4.572;2023-06-14T07:37:16;11.23;;;6.57;;
19897;SDS011;10111;50.814;4.572;2023-06-14T07:39:42;9.93;;;6.37;;
19897;SDS011;10111;50.814;4.572;2023-06-14T07:42:07;7.20;;;5.97;;
19897;SDS011;10111;50.814;4.572;2023-06-14T07:44:33;8.17;;;6.67;;
19897;SDS011;10111;50.814;4.572;2023-06-14T07:46:59;9.77;;;6.63;;
19897;SDS011;10111;50.814;4.572;2023-06-14T07:49:25;8.23;;;6.07;;
19897;SDS011;10111;50.814;4.572;2023-06-14T07:51:51;8.73;;;6.50;;
19897;SDS011;10111;50.814;4.572;2023-06-14T07:54:16;7.03;;;6.23;;
19897;SDS011;10111;50.814;4.572;2023-06-14T07:56:42;9.57;;;6.40;;
19897;SDS011;10111;50.814;4.572;2023-06-14T07:59:08;6.90;;;6.30;;
19897;SDS011;10111;50.814;4.572;2023-06-14T08:01:34;6.70;;;6.10;;
19897;SDS011;10111;50.814;4.572;2023-06-14T08:04:00;8.27;;;6.40;;
19897;SDS011;10111;50.814;4.572;2023-06-14T08:06:26;6.67;;;6.07;;
19897;SDS011;10111;50.814;4.572;2023-06-14T08:08:52;9.03;;;6.03;;
19897;SDS011;10111;50.814;4.572;2023-06-14T08:11:17;7.07;;;6.23;;
19897;SDS011;10111;50.814;4.572;2023-06-14T08:13:43;6.87;;;5.97;;
19897;SDS011;10111;50.814;4.572;2023-06-14T08:16:09;6.47;;;5.83;;
19897;SDS011;10111;50.814;4.572;2023-06-14T08:18:35;7.07;;;5.93;;
19897;SDS011;10111;50.814;4.572;2023-06-14T08:21:01;8.90;;;6.37;;
19897;SDS011;10111;50.814;4.572;2023-06-14T08:23:28;7.60;;;5.83;;
19897;SDS011;10111;50.814;4.572;2023-06-14T08:25:53;7.77;;;6.20;;
19897;SDS011;10111;50.814;4.572;2023-06-14T08:28:20;6.47;;;5.60;;
19897;SDS011;10111;50.814;4.572;2023-06-14T08:30:46;9.13;;;5.93;;
19897;SDS011;10111;50.814;4.572;2023-06-14T08:33:11;6.57;;;5.87;;
19897;SDS011;10111;50.814;4.572;2023-06-14T08:35:37;9.37;;;6.13;;
19897;SDS011;10111;50.814;4.572;2023-06-14T08:38:04;8.57;;;6.63;;
19897;SDS011;10111;50.814;4.572;2023-06-14T08:40:30;7.70;;;6.57;;
19897;SDS011;10111;50.814;4.572;2023-06-14T08:42:56;8.70;;;6.53;;
19897;SDS011;10111;50.814;4.572;2023-06-14T08:45:22;8.23;;;6.90;;
19897;SDS011;10111;50.814;4.572;2023-06-14T08:47:52;7.83;;;6.20;;
19897;SDS011;10111;50.814;4.572;2023-06-14T08:50:22;9.53;;;6.43;;
19897;SDS011;10111;50.814;4.572;2023-06-14T08:52:55;7.20;;;6.50;;
19897;SDS011;10111;50.814;4.572;2023-06-14T08:55:25;11.33;;;6.07;;
19897;SDS011;10111;50.814;4.572;2023-06-14T08:57:56;10.87;;;5.80;;
19897;SDS011;10111;50.814;4.572;2023-06-14T09:00:23;7.50;;;6.17;;
19897;SDS011;10111;50.814;4.572;2023-06-14T09:02:50;8.10;;;6.30;;
19897;SDS011;10111;50.814;4.572;2023-06-14T09:05:21;10.53;;;6.67;;
19897;SDS011;10111;50.814;4.572;2023-06-14T09:07:51;10.50;;;6.23;;
19897;SDS011;10111;50.814;4.572;2023-06-14T09:10:17;7.73;;;5.60;;
19897;SDS011;10111;50.814;4.572;2023-06-14T09:12:44;10.93;;;7.13;;
19897;SDS011;10111;50.814;4.572;2023-06-14T09:15:09;6.83;;;5.47;;
19897;SDS011;10111;50.814;4.572;2023-06-14T09:17:35;9.27;;;6.50;;
19897;SDS011;10111;50.814;4.572;2023-06-14T09:20:05;8.43;;;5.97;;
19897;SDS011;10111;50.814;4.572;2023-06-14T09:22:36;7.77;;;5.77;;
19897;SDS011;10111;50.814;4.572;2023-06-14T09:25:03;7.73;;;6.10;;
19897;SDS011;10111;50.814;4.572;2023-06-14T09:27:29;7.40;;;6.17;;
19897;SDS011;10111;50.814;4.572;2023-06-14T09:29:55;9.97;;;6.30;;
19897;SDS011;10111;50.814;4.572;2023-06-14T09:32:21;6.17;;;5.57;;
19897;SDS011;10111;50.814;4.572;2023-06-14T09:34:48;9.67;;;5.80;;
19897;SDS011;10111;50.814;4.572;2023-06-14T09:37:25;10.93;;;5.83;;
19897;SDS011;10111;50.814;4.572;2023-06-14T09:39:52;6.57;;;5.47;;
19897;SDS011;10111;50.814;4.572;2023-06-14T09:42:18;7.63;;;5.60;;
19897;SDS011;10111;50.814;4.572;2023-06-14T09:44:48;7.90;;;5.57;;
19897;SDS011;10111;50.814;4.572;2023-06-14T09:47:15;7.73;;;5.33;;
19897;SDS011;10111;50.814;4.572;2023-06-14T09:49:41;6.77;;;5.33;;
19897;SDS011;10111;50.814;4.572;2023-06-14T09:52:12;7.43;;;5.43;;
19897;SDS011;10111;50.814;4.572;2023-06-14T09:54:43;10.53;;;5.57;;
19897;SDS011;10111;50.814;4.572;2023-06-14T09:57:11;6.63;;;5.60;;
19897;SDS011;10111;50.814;4.572;2023-06-14T09:59:45;7.70;;;5.87;;
19897;SDS011;10111;50.814;4.572;2023-06-14T10:02:34;6.53;;;5.17;;
19897;SDS011;10111;50.814;4.572;2023-06-14T10:05:03;8.63;;;5.50;;
19897;SDS011;10111;50.814;4.572;2023-06-14T10:07:41;7.00;;;5.57;;
19897;SDS011;10111;50.814;4.572;2023-06-14T10:10:13;5.93;;;5.43;;
19897;SDS011;10111;50.814;4.572;2023-06-14T10:12:39;6.67;;;5.03;;
19897;SDS011;10111;50.814;4.572;2023-06-14T10:15:07;20.40;;;6.20;;
19897;SDS011;10111;50.814;4.572;2023-06-14T10:20:38;7.67;;;5.53;;
19897;SDS011;10111;50.814;4.572;2023-06-14T10:23:22;5.50;;;5.00;;
19897;SDS011;10111;50.814;4.572;2023-06-14T10:25:49;7.13;;;4.80;;
19897;SDS011;10111;50.814;4.572;2023-06-14T10:28:20;5.73;;;4.50;;
19897;SDS011;10111;50.814;4.572;2023-06-14T10:33:56;7.77;;;4.50;;
19897;SDS011;10111;50.814;4.572;2023-06-14T10:38:57;6.07;;;4.67;;
19897;SDS011;10111;50.814;4.572;2023-06-14T10:41:22;4.97;;;4.10;;
19897;SDS011;10111;50.814;4.572;2023-06-14T10:43:50;8.60;;;4.73;;
19897;SDS011;10111;50.814;4.572;2023-06-14T10:46:16;6.33;;;4.63;;
19897;SDS011;10111;50.814;4.572;2023-06-14T10:48:44;5.03;;;4.57;;
19897;SDS011;10111;50.814;4.572;2023-06-14T10:51:17;7.60;;;4.60;;
19897;SDS011;10111;50.814;4.572;2023-06-14T10:53:49;5.43;;;4.93;;
19897;SDS011;10111;50.814;4.572;2023-06-14T10:56:32;8.20;;;4.90;;
19897;SDS011;10111;50.814;4.572;2023-06-14T10:58:58;7.50;;;4.30;;
19897;SDS011;10111;50.814;4.572;2023-06-14T11:04:09;7.67;;;4.80;;
19897;SDS011;10111;50.814;4.572;2023-06-14T11:11:49;5.00;;;4.40;;
19897;SDS011;10111;50.814;4.572;2023-06-14T11:14:18;5.57;;;4.10;;
19897;SDS011;10111;50.814;4.572;2023-06-14T11:16:47;4.27;;;3.87;;
19897;SDS011;10111;50.814;4.572;2023-06-14T11:19:16;5.17;;;4.63;;
19897;SDS011;10111;50.814;4.572;2023-06-14T11:21:46;11.37;;;4.47;;
19897;SDS011;10111;50.814;4.572;2023-06-14T11:24:13;5.07;;;4.33;;
19897;SDS011;10111;50.814;4.572;2023-06-14T11:26:39;8.10;;;4.40;;
19897;SDS011;10111;50.814;4.572;2023-06-14T11:29:05;6.67;;;3.93;;
19897;SDS011;10111;50.814;4.572;2023-06-14T11:31:31;4.57;;;4.13;;
19897;SDS011;10111;50.814;4.572;2023-06-14T11:33:57;6.13;;;4.13;;
19897;SDS011;10111;50.814;4.572;2023-06-14T11:36:27;6.27;;;4.13;;
19897;SDS011;10111;50.814;4.572;2023-06-14T11:38:58;6.57;;;4.50;;
19897;SDS011;10111;50.814;4.572;2023-06-14T11:41:25;5.80;;;5.07;;
19897;SDS011;10111;50.814;4.572;2023-06-14T11:43:54;4.67;;;4.07;;
19897;SDS011;10111;50.814;4.572;2023-06-14T11:46:19;6.53;;;4.13;;
19897;SDS011;10111;50.814;4.572;2023-06-14T11:48:49;5.80;;;3.97;;
19897;SDS011;10111;50.814;4.572;2023-06-14T11:51:14;4.30;;;3.90;;
19897;SDS011;10111;50.814;4.572;2023-06-14T11:53:41;7.80;;;4.10;;
19897;SDS011;10111;50.814;4.572;2023-06-14T11:56:08;5.53;;;3.80;;
19897;SDS011;10111;50.814;4.572;2023-06-14T11:58:34;4.47;;;3.43;;
19897;SDS011;10111;50.814;4.572;2023-06-14T12:01:00;5.23;;;3.20;;
19897;SDS011;10111;50.814;4.572;2023-06-14T12:03:28;4.70;;;4.17;;
19897;SDS011;10111;50.814;4.572;2023-06-14T12:06:06;9.07;;;4.67;;
19897;SDS011;10111;50.814;4.572;2023-06-14T12:08:36;7.03;;;3.80;;
19897;SDS011;10111;50.814;4.572;2023-06-14T12:11:15;4.33;;;3.63;;
19897;SDS011;10111;50.814;4.572;2023-06-14T12:13:42;5.33;;;4.03;;
19897;SDS011;10111;50.814;4.572;2023-06-14T12:16:08;5.47;;;4.20;;
19897;SDS011;10111;50.814;4.572;2023-06-14T12:18:36;6.07;;;4.13;;
19897;SDS011;10111;50.814;4.572;2023-06-14T12:21:07;7.47;;;4.57;;
19897;SDS011;10111;50.814;4.572;2023-06-14T12:23:38;7.20;;;4.10;;
19897;SDS011;10111;50.814;4.572;2023-06-14T12:26:04;4.73;;;3.53;;
19897;SDS011;10111;50.814;4.572;2023-06-14T12:28:31;7.03;;;4.07;;
19897;SDS011;10111;50.814;4.572;2023-06-14T12:30:57;6.57;;;4.00;;
19897;SDS011;10111;50.814;4.572;2023-06-14T12:33:24;9.07;;;4.07;;
19897;SDS011;10111;50.814;4.572;2023-06-14T12:35:50;7.60;;;4.43;;
19897;SDS011;10111;50.814;4.572;2023-06-14T12:38:16;6.87;;;3.87;;
19897;SDS011;10111;50.814;4.572;2023-06-14T12:40:42;6.40;;;3.87;;
19897;SDS011;10111;50.814;4.572;2023-06-14T12:43:08;4.43;;;3.17;;
19897;SDS011;10111;50.814;4.572;2023-06-14T12:45:33;6.57;;;3.63;;
19897;SDS011;10111;50.814;4.572;2023-06-14T12:47:59;4.13;;;3.23;;
19897;SDS011;10111;50.814;4.572;2023-06-14T12:50:25;5.67;;;3.70;;
19897;SDS011;10111;50.814;4.572;2023-06-14T12:52:51;4.90;;;3.13;;
19897;SDS011;10111;50.814;4.572;2023-06-14T12:55:16;4.17;;;3.40;;
19897;SDS011;10111;50.814;4.572;2023-06-14T12:57:44;5.93;;;3.77;;
19897;SDS011;10111;50.814;4.572;2023-06-14T13:00:09;5.03;;;3.43;;
19897;SDS011;10111;50.814;4.572;2023-06-14T13:02:37;3.57;;;2.90;;
19897;SDS011;10111;50.814;4.572;2023-06-14T13:05:03;9.20;;;3.27;;
19897;SDS011;10111;50.814;4.572;2023-06-14T13:07:30;6.97;;;3.00;;
19897;SDS011;10111;50.814;4.572;2023-06-14T13:09:56;3.27;;;2.97;;
19897;SDS011;10111;50.814;4.572;2023-06-14T13:12:22;5.33;;;3.03;;
19897;SDS011;10111;50.814;4.572;2023-06-14T13:14:47;4.07;;;2.80;;
19897;SDS011;10111;50.814;4.572;2023-06-14T13:17:13;3.03;;;2.70;;
19897;SDS011;10111;50.814;4.572;2023-06-14T13:19:39;6.13;;;3.20;;
19897;SDS011;10111;50.814;4.572;2023-06-14T13:22:06;3.67;;;3.17;;
19897;SDS011;10111;50.814;4.572;2023-06-14T13:24:32;5.00;;;2.80;;
19897;SDS011;10111;50.814;4.572;2023-06-14T13:26:58;5.33;;;3.00;;
19897;SDS011;10111;50.814;4.572;2023-06-14T13:29:24;6.70;;;2.93;;
19897;SDS011;10111;50.814;4.572;2023-06-14T13:31:51;4.60;;;3.07;;
19897;SDS011;10111;50.814;4.572;2023-06-14T13:34:17;5.63;;;2.90;;
19897;SDS011;10111;50.814;4.572;2023-06-14T13:36:43;4.37;;;2.97;;
19897;SDS011;10111;50.814;4.572;2023-06-14T13:39:09;5.77;;;2.47;;
19897;SDS011;10111;50.814;4.572;2023-06-14T13:41:36;3.57;;;2.70;;
19897;SDS011;10111;50.814;4.572;2023-06-14T13:44:02;2.87;;;2.30;;
19897;SDS011;10111;50.814;4.572;2023-06-14T13:46:31;6.90;;;2.20;;
19897;SDS011;10111;50.814;4.572;2023-06-14T13:48:57;3.97;;;2.10;;
19897;SDS011;10111;50.814;4.572;2023-06-14T13:51:23;3.83;;;1.83;;
19897;SDS011;10111;50.814;4.572;2023-06-14T13:53:49;2.23;;;2.03;;
19897;SDS011;10111;50.814;4.572;2023-06-14T13:56:16;4.33;;;2.43;;
19897;SDS011;10111;50.814;4.572;2023-06-14T13:58:42;2.57;;;2.03;;
19897;SDS011;10111;50.814;4.572;2023-06-14T14:01:08;3.07;;;1.97;;
19897;SDS011;10111;50.814;4.572;2023-06-14T14:03:34;1.93;;;1.77;;
19897;SDS011;10111;50.814;4.572;2023-06-14T14:06:01;2.97;;;1.90;;
19897;SDS011;10111;50.814;4.572;2023-06-14T14:08:27;5.07;;;1.90;;
19897;SDS011;10111;50.814;4.572;2023-06-14T14:10:53;4.03;;;1.77;;
19897;SDS011;10111;50.814;4.572;2023-06-14T14:13:19;5.10;;;1.60;;
19897;SDS011;10111;50.814;4.572;2023-06-14T14:15:46;4.13;;;1.77;;
19897;SDS011;10111;50.814;4.572;2023-06-14T14:18:12;2.60;;;1.80;;
19897;SDS011;10111;50.814;4.572;2023-06-14T14:20:38;5.97;;;1.83;;
19897;SDS011;10111;50.814;4.572;2023-06-14T14:23:04;4.73;;;1.87;;
19897;SDS011;10111;50.814;4.572;2023-06-14T14:25:29;5.40;;;1.87;;
19897;SDS011;10111;50.814;4.572;2023-06-14T14:27:55;3.77;;;1.50;;
19897;SDS011;10111;50.814;4.572;2023-06-14T14:30:21;3.23;;;1.40;;
19897;SDS011;10111;50.814;4.572;2023-06-14T14:32:51;3.60;;;1.63;;
19897;SDS011;10111;50.814;4.572;2023-06-14T14:35:17;2.53;;;1.93;;
19897;SDS011;10111;50.814;4.572;2023-06-14T14:37:43;2.10;;;1.70;;
19897;SDS011;10111;50.814;4.572;2023-06-14T14:40:10;1.70;;;1.60;;
19897;SDS011;10111;50.814;4.572;2023-06-14T14:42:36;4.70;;;2.00;;
19897;SDS011;10111;50.814;4.572;2023-06-14T14:45:02;1.60;;;1.40;;
19897;SDS011;10111;50.814;4.572;2023-06-14T14:47:29;4.70;;;1.97;;
19897;SDS011;10111;50.814;4.572;2023-06-14T14:49:54;4.07;;;2.23;;
19897;SDS011;10111;50.814;4.572;2023-06-14T14:52:20;2.10;;;1.80;;
19897;SDS011;10111;50.814;4.572;2023-06-14T14:54:46;4.77;;;1.80;;
19897;SDS011;10111;50.814;4.572;2023-06-14T14:57:12;5.10;;;1.60;;
19897;SDS011;10111;50.814;4.572;2023-06-14T14:59:38;4.77;;;2.63;;
19897;SDS011;10111;50.814;4.572;2023-06-14T15:02:04;3.47;;;1.57;;
19897;SDS011;10111;50.814;4.572;2023-06-14T15:04:30;2.23;;;1.77;;
19897;SDS011;10111;50.814;4.572;2023-06-14T15:06:57;4.70;;;1.80;;